TimeEST,TemperatureF,Dew PointF,Humidity,Sea Level PressureIn,VisibilityMPH,Wind Direction,Wind SpeedMPH,Gust SpeedMPH,PrecipitationIn,Events,Conditions,WindDirDegrees,DateUTC
1:14 AM,33.8,30.0,86,30.16,7.0,SW,6.9,-,N/A,,Clear,220,2013-01-09 06:14:00
1:35 AM,34.3,30.2,85,30.15,7.0,SSW,5.8,-,N/A,,Clear,200,2013-01-09 06:35:00
1:55 AM,34.5,30.2,84,30.14,7.0,South,5.8,-,N/A,,Clear,190,2013-01-09 06:55:00
2:14 AM,34.7,30.4,84,30.13,7.0,South,5.8,-,N/A,,Clear,190,2013-01-09 07:14:00
2:35 AM,34.7,30.6,85,30.13,7.0,South,5.8,-,N/A,,Clear,190,2013-01-09 07:35:00
2:55 AM,34.2,30.2,85,30.13,7.0,SSW,4.6,-,N/A,,Clear,200,2013-01-09 07:55:00
3:14 AM,34.7,30.7,85,30.13,7.0,SSW,6.9,-,N/A,,Clear,210,2013-01-09 08:14:00
3:35 AM,34.9,30.9,85,30.13,7.0,SSW,9.2,-,N/A,,Clear,210,2013-01-09 08:35:00
3:55 AM,34.9,30.9,85,30.13,7.0,SSW,9.2,-,N/A,,Scattered Clouds,210,2013-01-09 08:55:00
4:14 AM,35.6,31.1,84,30.11,7.0,SSW,6.9,-,N/A,,Overcast,210,2013-01-09 09:14:00
4:35 AM,35.8,31.1,83,30.09,7.0,SSW,6.9,-,N/A,,Mostly Cloudy,210,2013-01-09 09:35:00
4:54 AM,36.5,31.8,83,30.08,7.0,SSW,8.1,-,N/A,,Mostly Cloudy,200,2013-01-09 09:54:00
5:14 AM,37.0,32.0,82,30.07,10.0,SSW,5.8,-,N/A,,Overcast,210,2013-01-09 10:14:00
5:35 AM,37.4,32.0,81,30.07,10.0,SSW,10.4,-,N/A,,Overcast,210,2013-01-09 10:35:00
5:54 AM,37.4,32.0,81,30.08,10.0,SW,8.1,-,N/A,,Overcast,230,2013-01-09 10:54:00
6:14 AM,36.9,32.0,83,30.08,7.0,WSW,6.9,-,N/A,Rain,Light Rain,240,2013-01-09 11:14:00
6:35 AM,36.5,32.0,84,30.05,7.0,SSW,8.1,16.1,N/A,Rain,Light Rain,200,2013-01-09 11:35:00
6:54 AM,37.4,32.0,81,30.05,7.0,SSW,11.5,16.1,N/A,Rain,Light Rain,210,2013-01-09 11:54:00
7:14 AM,38.3,32.5,80,30.05,10.0,SW,11.5,16.1,N/A,,Overcast,220,2013-01-09 12:14:00
7:35 AM,38.7,32.9,80,30.05,10.0,SW,15.0,-,N/A,,Mostly Cloudy,220,2013-01-09 12:35:00
7:54 AM,39.2,32.9,78,30.06,10.0,SW,11.5,-,N/A,,Scattered Clouds,220,2013-01-09 12:54:00
8:15 AM,39.4,33.1,78,30.07,10.0,SW,12.7,-,N/A,,Clear,220,2013-01-09 13:15:00
8:35 AM,39.7,33.4,78,30.06,10.0,SSW,12.7,18.4,N/A,,Clear,210,2013-01-09 13:35:00
8:54 AM,40.5,33.8,77,30.07,10.0,SW,12.7,21.9,N/A,,Clear,230,2013-01-09 13:54:00
9:15 AM,40.6,33.8,77,30.08,10.0,SW,11.5,18.4,N/A,,Clear,230,2013-01-09 14:15:00
9:34 AM,41.2,33.8,75,30.08,10.0,WSW,10.4,-,N/A,,Clear,240,2013-01-09 14:34:00
9:54 AM,42.1,34.0,73,30.09,10.0,SW,15.0,19.6,N/A,,Clear,230,2013-01-09 14:54:00
10:15 AM,43.7,34.2,69,30.09,10.0,WSW,12.7,19.6,N/A,,Clear,240,2013-01-09 15:15:00
10:34 AM,45.0,34.0,65,30.10,10.0,WSW,13.8,19.6,N/A,,Clear,240,2013-01-09 15:34:00
10:54 AM,46.4,33.3,60,30.10,10.0,West,16.1,24.2,N/A,,Clear,260,2013-01-09 15:54:00
11:14 AM,46.9,32.5,57,30.10,10.0,West,18.4,29.9,N/A,,Clear,260,2013-01-09 16:14:00
11:34 AM,47.5,32.2,55,30.11,10.0,WSW,12.7,24.2,N/A,,Clear,250,2013-01-09 16:34:00
11:55 AM,47.5,32.0,55,30.11,10.0,West,21.9,27.6,N/A,,Clear,260,2013-01-09 16:55:00
12:14 PM,48.2,30.7,51,30.10,10.0,West,16.1,28.8,N/A,,Clear,260,2013-01-09 17:14:00
12:35 PM,48.2,30.0,49,30.10,10.0,West,16.1,27.6,N/A,,Clear,260,2013-01-09 17:35:00
12:54 PM,48.2,29.3,48,30.10,10.0,WSW,16.1,25.3,N/A,,Clear,250,2013-01-09 17:54:00
1:14 PM,49.1,29.1,46,30.10,10.0,West,15.0,29.9,N/A,,Clear,260,2013-01-09 18:14:00
1:35 PM,49.1,27.3,43,30.10,10.0,West,12.7,21.9,N/A,,Clear,260,2013-01-09 18:35:00
1:54 PM,49.3,27.1,42,30.10,10.0,WSW,17.3,27.6,N/A,,Clear,250,2013-01-09 18:54:00
2:14 PM,50.0,25.5,39,30.11,10.0,West,20.7,25.3,N/A,,Clear,260,2013-01-09 19:14:00
2:35 PM,50.0,24.3,37,30.12,10.0,West,21.9,32.2,N/A,,Clear,260,2013-01-09 19:35:00
2:54 PM,50.2,23.7,36,30.13,10.0,West,16.1,33.4,N/A,,Clear,260,2013-01-09 19:54:00
3:15 PM,50.4,22.5,34,30.15,10.0,West,18.4,28.8,N/A,,Clear,260,2013-01-09 20:15:00
3:35 PM,50.0,22.6,34,30.16,10.0,West,18.4,31.1,N/A,,Clear,270,2013-01-09 20:35:00
3:54 PM,49.6,23.5,36,30.16,10.0,West,17.3,29.9,N/A,,Clear,260,2013-01-09 20:54:00
4:15 PM,49.6,23.4,36,30.18,10.0,West,19.6,28.8,N/A,,Clear,260,2013-01-09 21:15:00
4:34 PM,49.5,21.0,33,30.18,10.0,West,17.3,34.5,N/A,,Clear,270,2013-01-09 21:34:00
4:55 PM,48.7,19.9,32,30.20,10.0,West,19.6,36.8,N/A,,Clear,270,2013-01-09 21:55:00
5:14 PM,47.8,19.6,33,30.20,10.0,West,16.1,24.2,N/A,,Clear,270,2013-01-09 22:14:00
5:34 PM,47.3,19.6,33,30.21,10.0,West,9.2,28.8,N/A,,Clear,270,2013-01-09 22:34:00
5:55 PM,46.6,20.3,35,30.24,10.0,West,17.3,25.3,N/A,,Clear,270,2013-01-09 22:55:00
6:14 PM,45.9,21.2,38,30.25,10.0,West,17.3,27.6,N/A,,Clear,270,2013-01-09 23:14:00
6:34 PM,45.5,22.1,40,30.27,10.0,West,18.4,29.9,N/A,,Clear,270,2013-01-09 23:34:00
7:14 PM,44.6,23.9,44,30.31,10.0,West,19.6,29.9,N/A,,Clear,270,2013-01-10 00:14:00
7:35 PM,43.7,24.6,47,30.33,10.0,West,10.4,18.4,N/A,,Clear,270,2013-01-10 00:35:00
7:54 PM,43.2,24.8,48,30.35,10.0,West,15.0,25.3,N/A,,Clear,280,2013-01-10 00:54:00
8:14 PM,42.8,25.2,50,30.36,10.0,West,17.3,24.2,N/A,,Clear,280,2013-01-10 01:14:00
9:14 PM,41.4,25.5,53,30.38,10.0,WNW,9.2,18.4,N/A,,Clear,290,2013-01-10 02:14:00
9:34 PM,41.0,25.5,54,30.39,10.0,NW,8.1,18.4,N/A,,Clear,310,2013-01-10 02:34:00
9:55 PM,40.6,25.7,55,30.40,10.0,WNW,9.2,-,N/A,,Clear,300,2013-01-10 02:55:00
10:14 PM,39.9,25.9,57,30.40,10.0,NW,9.2,-,N/A,,Clear,320,2013-01-10 03:14:00
10:34 PM,39.4,26.2,59,30.42,10.0,NW,5.8,-,N/A,,Clear,310,2013-01-10 03:34:00
10:55 PM,39.4,26.1,59,30.43,10.0,WNW,6.9,-,N/A,,Clear,290,2013-01-10 03:55:00
11:14 PM,38.5,26.2,61,30.43,10.0,NW,4.6,-,N/A,,Clear,310,2013-01-10 04:14:00
11:35 PM,37.9,26.4,63,30.43,10.0,WNW,3.5,-,N/A,,Clear,300,2013-01-10 04:35:00
11:55 PM,37.2,26.2,65,30.44,10.0,Calm,Calm,-,N/A,,Clear,0,2013-01-10 04:55:00